Time;durP1;ratioP1;P1;durP2;ratioP2;P2;SDS_P1;SDS_P2;PMS_P1;PMS_P2;Temp;Humidity;BMP_temperature;BMP_pressure;BME280_temperature;BME280_humidity;BME280_pressure;Samples;Min_cycle;Max_cycle;Signal;HPM_P1;HPM_P2
2023/09/29 00:01:13;;;;;;;3.10;2.63;;;21.90;99.90;;;;;;5083976;28;20207;-86
2023/09/29 00:03:42;;;;;;;4.90;3.20;;;21.90;99.90;;;;;;5088045;28;20198;-86
2023/09/29 00:06:07;;;;;;;3.57;2.60;;;21.90;99.90;;;;;;5083229;28;20194;-86
2023/09/29 00:08:36;;;;;;;2.93;2.50;;;21.90;99.90;;;;;;5091810;28;20163;-86
2023/09/29 00:11:01;;;;;;;3.13;2.60;;;22.00;99.90;;;;;;5082468;28;20191;-86
2023/09/29 00:13:30;;;;;;;2.90;2.30;;;21.90;99.90;;;;;;5090353;28;20186;-86
2023/09/29 00:15:59;;;;;;;3.07;2.57;;;21.90;99.90;;;;;;5077355;28;20481;-86
2023/09/29 00:18:25;;;;;;;4.43;2.87;;;21.90;99.90;;;;;;5091486;28;20502;-87
2023/09/29 00:20:51;;;;;;;3.53;2.40;;;21.90;99.90;;;;;;5077870;28;20293;-86
2023/09/29 00:23:16;;;;;;;4.03;2.77;;;21.90;99.90;;;;;;5090456;28;20293;-86
2023/09/29 00:25:42;;;;;;;3.40;2.70;;;21.90;99.90;;;;;;5076603;28;20406;-86
2023/09/29 00:28:08;;;;;;;3.17;2.53;;;21.90;99.90;;;;;;5090433;28;20455;-86
2023/09/29 00:30:33;;;;;;;3.53;2.60;;;21.90;99.90;;;;;;5079318;28;20175;-87
2023/09/29 00:33:02;;;;;;;3.20;2.50;;;22.00;99.90;;;;;;5070896;28;20180;-87
2023/09/29 00:35:27;;;;;;;3.30;2.13;;;22.00;99.90;;;;;;5080804;28;20212;-87
2023/09/29 00:37:57;;;;;;;3.20;2.63;;;22.00;99.90;;;;;;5076893;28;20455;-86
2023/09/29 00:40:24;;;;;;;2.43;2.20;;;22.00;99.90;;;;;;5081174;28;20199;-86
2023/09/29 00:42:54;;;;;;;3.50;2.60;;;22.00;99.90;;;;;;5078364;28;20514;-86
2023/09/29 00:45:28;;;;;;;3.40;2.30;;;22.00;99.90;;;;;;5078740;28;20540;-86
2023/09/29 00:47:56;;;;;;;3.77;2.80;;;21.90;99.90;;;;;;5080708;28;20472;-86
2023/09/29 00:50:23;;;;;;;3.13;2.47;;;22.00;99.90;;;;;;5077608;28;20182;-86
2023/09/29 00:52:58;;;;;;;3.17;2.63;;;22.00;99.90;;;;;;5081854;28;20392;-86
2023/09/29 00:55:30;;;;;;;2.50;2.30;;;22.00;99.90;;;;;;5076800;28;20564;-86
2023/09/29 00:58:17;;;;;;;3.27;2.20;;;21.90;99.90;;;;;;5081402;28;20178;-87
2023/09/29 01:00:43;;;;;;;2.90;2.60;;;21.90;99.90;;;;;;5071471;28;20708;-87
2023/09/29 01:03:11;;;;;;;4.27;2.60;;;21.90;99.90;;;;;;5084402;28;20360;-86
2023/09/29 01:05:42;;;;;;;3.63;2.33;;;21.90;99.90;;;;;;5089047;28;20178;-86
2023/09/29 01:08:12;;;;;;;3.23;2.40;;;21.90;99.90;;;;;;5082966;28;20283;-86
2023/09/29 01:10:41;;;;;;;3.43;2.53;;;21.90;99.90;;;;;;5087750;28;20175;-86
2023/09/29 01:13:10;;;;;;;3.60;2.03;;;21.90;99.90;;;;;;5072176;28;20176;-86
2023/09/29 01:15:36;;;;;;;4.00;2.43;;;21.90;99.90;;;;;;5072527;28;20167;-87
2023/09/29 01:18:02;;;;;;;2.83;2.20;;;21.80;99.90;;;;;;5090021;28;20224;-87
2023/09/29 01:20:31;;;;;;;3.23;2.40;;;21.80;99.90;;;;;;5091150;28;20206;-87
2023/09/29 01:23:01;;;;;;;2.73;2.50;;;21.80;99.90;;;;;;5079767;28;20291;-87
2023/09/29 01:25:27;;;;;;;2.80;2.37;;;21.80;99.90;;;;;;5091080;28;20175;-86
2023/09/29 01:27:56;;;;;;;3.77;2.50;;;21.80;99.90;;;;;;5077763;28;20229;-86
2023/09/29 01:30:24;;;;;;;2.47;2.27;;;21.90;99.90;;;;;;5090771;28;20178;-87
2023/09/29 01:32:52;;;;;;;3.93;2.27;;;21.80;99.90;;;;;;5041939;28;20179;-86
2023/09/29 01:35:24;;;;;;;2.70;2.10;;;21.80;99.90;;;;;;5093389;28;20210;-86
2023/09/29 01:37:53;;;;;;;3.73;2.30;;;21.80;99.90;;;;;;5078061;28;20525;-86
2023/09/29 01:40:21;;;;;;;2.73;2.20;;;21.80;99.90;;;;;;5092061;28;20224;-87
2023/09/29 01:42:47;;;;;;;3.33;2.40;;;21.80;99.90;;;;;;5081444;28;20175;-87
2023/09/29 01:45:16;;;;;;;3.00;2.27;;;21.80;99.90;;;;;;5090177;28;20199;-87
2023/09/29 01:47:47;;;;;;;2.17;1.97;;;21.80;99.90;;;;;;5084123;28;20175;-87
2023/09/29 01:50:16;;;;;;;2.77;1.90;;;21.70;99.90;;;;;;5088667;28;20178;-87
2023/09/29 01:52:44;;;;;;;4.77;2.37;;;21.70;99.90;;;;;;5083519;28;20183;-87
2023/09/29 01:55:19;;;;;;;2.80;2.20;;;21.80;99.90;;;;;;5086451;28;20659;-87
2023/09/29 01:57:46;;;;;;;2.93;2.17;;;21.80;99.90;;;;;;5086961;28;20545;-87
2023/09/29 02:00:19;;;;;;;2.33;2.10;;;21.80;99.90;;;;;;5075916;28;20272;-87
2023/09/29 02:02:46;;;;;;;2.83;2.20;;;21.70;99.90;;;;;;5075358;28;20282;-87
2023/09/29 02:05:21;;;;;;;3.80;2.23;;;21.70;99.90;;;;;;5080265;28;20176;-87
2023/09/29 02:07:49;;;;;;;2.73;2.10;;;21.80;99.90;;;;;;5075730;28;20236;-87
2023/09/29 02:10:20;;;;;;;5.77;2.30;;;21.70;99.90;;;;;;5080811;28;20207;-87
2023/09/29 02:12:57;;;;;;;3.27;2.23;;;21.70;99.90;;;;;;5074866;28;20176;-87
2023/09/29 02:15:26;;;;;;;4.10;2.20;;;21.60;99.90;;;;;;5083025;28;20557;-87
2023/09/29 02:17:52;;;;;;;3.27;2.27;;;21.50;99.90;;;;;;5075253;28;20203;-87
2023/09/29 02:20:30;;;;;;;2.83;2.10;;;21.50;99.90;;;;;;5085220;28;20295;-87
2023/09/29 02:23:00;;;;;;;3.07;2.10;;;21.50;99.90;;;;;;5074274;28;20176;-87
2023/09/29 02:25:29;;;;;;;3.47;2.47;;;21.60;99.90;;;;;;5084735;28;20560;-86
2023/09/29 02:27:59;;;;;;;3.27;2.10;;;21.60;99.90;;;;;;5074057;28;20268;-87
2023/09/29 02:30:26;;;;;;;2.90;2.10;;;21.50;99.90;;;;;;5083635;28;20175;-87
2023/09/29 02:32:52;;;;;;;2.43;2.17;;;21.50;99.90;;;;;;5072005;28;20191;-87
2023/09/29 02:35:18;;;;;;;3.17;2.20;;;21.50;99.90;;;;;;5081321;28;20190;-87
2023/09/29 02:37:45;;;;;;;4.00;2.23;;;21.50;99.90;;;;;;5092704;28;20182;-87
2023/09/29 02:40:15;;;;;;;3.10;2.10;;;21.50;99.90;;;;;;5079145;28;20203;-87
2023/09/29 02:42:44;;;;;;;2.83;2.10;;;21.40;99.90;;;;;;5092318;28;20248;-87
2023/09/29 02:45:13;;;;;;;5.30;2.20;;;21.40;99.90;;;;;;5076529;28;20183;-87
2023/09/29 02:47:39;;;;;;;3.97;2.10;;;21.40;99.90;;;;;;5090203;28;20181;-87
2023/09/29 02:50:09;;;;;;;2.93;1.93;;;21.40;99.90;;;;;;5079247;28;20186;-87
2023/09/29 02:52:38;;;;;;;3.30;2.33;;;21.40;99.90;;;;;;5088512;28;20186;-87
2023/09/29 02:55:10;;;;;;;3.37;2.30;;;21.40;99.90;;;;;;5078641;28;20179;-87
2023/09/29 02:57:42;;;;;;;3.60;2.17;;;21.40;99.90;;;;;;5084747;28;20307;-87
2023/09/29 03:00:15;;;;;;;4.10;2.50;;;21.40;99.90;;;;;;5077439;28;20198;-87
2023/09/29 03:02:44;;;;;;;3.03;2.10;;;21.30;99.90;;;;;;5072557;28;20447;-87
2023/09/29 03:05:11;;;;;;;3.20;2.13;;;21.20;99.90;;;;;;5076364;28;20481;-87
2023/09/29 03:07:37;;;;;;;2.83;2.03;;;21.20;99.90;;;;;;5075362;28;20196;-87
2023/09/29 03:10:05;;;;;;;3.33;2.50;;;21.20;99.90;;;;;;5075608;28;20175;-86
2023/09/29 03:12:36;;;;;;;4.97;2.50;;;21.10;99.90;;;;;;5079876;28;20173;-87
2023/09/29 03:15:08;;;;;;;4.60;2.27;;;21.10;99.90;;;;;;5076244;28;20172;-87
2023/09/29 03:17:34;;;;;;;3.07;2.40;;;21.10;99.90;;;;;;5081520;28;20349;-87
2023/09/29 03:19:59;;;;;;;5.33;2.60;;;21.20;99.90;;;;;;5077875;28;20213;-87
2023/09/29 03:22:28;;;;;;;2.97;2.40;;;21.10;99.90;;;;;;5077041;28;20168;-86
2023/09/29 03:24:57;;;;;;;3.80;2.50;;;21.10;99.90;;;;;;5090718;28;20172;-86
2023/09/29 03:27:23;;;;;;;4.20;2.60;;;21.00;99.90;;;;;;5083445;28;20538;-86
2023/09/29 03:29:49;;;;;;;4.30;2.50;;;20.90;99.90;;;;;;5072258;28;20585;-87
2023/09/29 03:32:17;;;;;;;3.33;2.33;;;20.90;99.90;;;;;;5078331;28;20186;-86
2023/09/29 03:34:48;;;;;;;6.40;2.30;;;21.00;99.90;;;;;;5089339;28;20178;-86
2023/09/29 03:37:18;;;;;;;3.73;2.40;;;21.10;99.90;;;;;;5076373;28;20644;-87
2023/09/29 03:39:47;;;;;;;3.07;2.50;;;21.10;99.90;;;;;;5089778;28;20274;-87
2023/09/29 03:42:14;;;;;;;3.67;2.60;;;21.10;99.90;;;;;;5079389;28;20581;-86
2023/09/29 03:44:39;;;;;;;4.60;2.80;;;21.10;99.90;;;;;;5091878;28;20175;-86
2023/09/29 03:47:05;;;;;;;2.93;2.20;;;21.10;99.90;;;;;;5081370;28;20194;-87
2023/09/29 03:49:35;;;;;;;4.57;2.60;;;21.00;99.90;;;;;;5092539;28;20167;-87
2023/09/29 03:52:00;;;;;;;4.87;2.50;;;21.10;99.90;;;;;;5084643;28;20191;-87
2023/09/29 03:54:29;;;;;;;4.70;2.80;;;21.00;99.90;;;;;;5091305;28;20541;-87
2023/09/29 03:56:57;;;;;;;4.40;2.87;;;20.90;99.90;;;;;;5084549;28;20193;-87
2023/09/29 03:59:26;;;;;;;5.03;2.70;;;20.90;99.90;;;;;;5075743;28;20205;-87
2023/09/29 04:01:55;;;;;;;5.10;2.70;;;21.00;99.90;;;;;;5077376;28;20235;-87
2023/09/29 04:04:23;;;;;;;3.43;2.80;;;21.00;99.90;;;;;;5078256;28;20252;-87
2023/09/29 04:06:49;;;;;;;4.47;2.63;;;21.00;99.90;;;;;;5074893;28;20229;-87
2023/09/29 04:09:15;;;;;;;4.10;2.50;;;21.00;99.90;;;;;;5079287;28;20172;-87
2023/09/29 04:11:41;;;;;;;3.33;2.53;;;21.00;99.90;;;;;;5074043;28;20450;-87
2023/09/29 04:14:06;;;;;;;3.10;2.40;;;21.10;99.90;;;;;;5084175;28;20187;-87
2023/09/29 04:16:32;;;;;;;2.60;2.10;;;21.10;99.90;;;;;;5072150;28;20253;-87
2023/09/29 04:18:58;;;;;;;5.20;2.77;;;21.20;99.90;;;;;;5081668;28;20627;-87
2023/09/29 04:21:26;;;;;;;3.57;2.60;;;21.20;99.90;;;;;;5092941;28;20287;-87
2023/09/29 04:23:55;;;;;;;3.27;2.70;;;21.10;99.90;;;;;;5080190;28;20159;-87
2023/09/29 04:26:22;;;;;;;3.30;2.40;;;21.00;99.90;;;;;;5090036;28;20170;-86
2023/09/29 04:28:49;;;;;;;4.33;2.40;;;21.00;99.90;;;;;;5079428;28;20176;-86
2023/09/29 04:31:18;;;;;;;4.73;2.53;;;21.00;99.90;;;;;;5090840;28;20197;-87
2023/09/29 04:33:46;;;;;;;3.67;2.50;;;21.00;99.90;;;;;;5078538;28;20561;-87
2023/09/29 04:36:12;;;;;;;4.20;2.50;;;21.00;99.90;;;;;;5072681;28;20635;-87
2023/09/29 04:38:38;;;;;;;4.13;2.40;;;21.10;99.90;;;;;;5087539;28;20266;-87
2023/09/29 04:41:07;;;;;;;2.37;2.10;;;21.10;99.90;;;;;;5074366;28;20699;-87
2023/09/29 04:43:38;;;;;;;3.27;2.30;;;21.20;99.90;;;;;;5074788;28;20168;-87
2023/09/29 04:46:07;;;;;;;3.30;2.40;;;21.30;99.90;;;;;;5088875;28;20530;-87
2023/09/29 04:48:33;;;;;;;2.87;2.10;;;21.30;99.90;;;;;;5082896;28;20303;-87
2023/09/29 04:50:59;;;;;;;3.20;2.50;;;21.30;99.90;;;;;;5085193;28;20175;-87
2023/09/29 04:53:28;;;;;;;2.83;2.20;;;21.30;99.90;;;;;;5088841;28;20299;-87
2023/09/29 04:55:53;;;;;;;3.17;2.50;;;21.40;99.90;;;;;;5082474;28;20339;-87
2023/09/29 04:58:19;;;;;;;3.40;2.50;;;21.40;99.90;;;;;;5086006;28;20237;-87
2023/09/29 05:00:47;;;;;;;3.97;2.20;;;21.40;99.90;;;;;;5083278;28;20203;-86
2023/09/29 05:03:16;;;;;;;2.53;2.10;;;21.50;99.90;;;;;;5071878;28;20165;-86
2023/09/29 05:05:51;;;;;;;3.53;2.80;;;21.50;99.90;;;;;;5083313;28;20170;-86
2023/09/29 05:08:17;;;;;;;5.90;2.40;;;21.50;99.90;;;;;;5070603;28;20262;-86
2023/09/29 05:10:43;;;;;;;3.73;2.50;;;21.50;99.90;;;;;;5082219;28;20202;-86
2023/09/29 05:13:12;;;;;;;3.60;2.70;;;21.50;99.90;;;;;;5067590;28;20177;-86
2023/09/29 05:15:37;;;;;;;2.97;2.37;;;21.50;99.90;;;;;;5075172;28;20235;-86
2023/09/29 05:18:04;;;;;;;3.43;2.60;;;21.50;99.90;;;;;;5086974;28;20181;-87
2023/09/29 05:20:29;;;;;;;3.30;2.50;;;21.50;99.90;;;;;;5073084;28;20207;-87
2023/09/29 05:22:55;;;;;;;2.90;2.37;;;21.50;99.90;;;;;;5083905;28;20174;-86
2023/09/29 05:25:20;;;;;;;2.70;2.37;;;21.50;99.90;;;;;;5078436;28;20174;-86
2023/09/29 05:27:49;;;;;;;4.93;2.37;;;21.40;99.90;;;;;;5064992;28;20414;-86
2023/09/29 05:30:16;;;;;;;3.10;2.13;;;21.40;99.90;;;;;;5070432;28;20333;-86
2023/09/29 05:32:42;;;;;;;3.73;2.47;;;21.30;99.90;;;;;;5081320;28;20331;-86
2023/09/29 05:35:10;;;;;;;2.73;2.40;;;21.30;99.90;;;;;;5078732;28;20206;-86
2023/09/29 05:37:39;;;;;;;2.60;2.40;;;21.20;99.90;;;;;;5068143;28;20331;-86
2023/09/29 05:40:05;;;;;;;5.20;2.70;;;21.00;99.90;;;;;;5070759;28;20470;-87
2023/09/29 05:42:34;;;;;;;5.53;2.37;;;21.00;99.90;;;;;;5072141;28;20175;-87
2023/09/29 05:44:59;;;;;;;5.07;2.57;;;21.00;99.90;;;;;;5065575;28;20170;-87
2023/09/29 05:47:25;;;;;;;4.53;2.30;;;21.00;99.90;;;;;;5071741;28;20710;-87
2023/09/29 05:49:54;;;;;;;4.07;2.90;;;21.00;99.90;;;;;;5078570;28;20305;-86
2023/09/29 05:52:22;;;;;;;4.20;2.80;;;21.00;99.90;;;;;;5069902;28;20163;-87
2023/09/29 05:54:51;;;;;;;3.30;2.60;;;21.10;99.90;;;;;;5080173;28;20183;-87
2023/09/29 05:57:20;;;;;;;4.97;2.50;;;21.10;99.90;;;;;;5072199;28;20191;-87
2023/09/29 05:59:46;;;;;;;4.00;2.57;;;21.20;99.90;;;;;;5082737;28;20171;-87
2023/09/29 06:02:11;;;;;;;3.30;2.70;;;21.10;99.90;;;;;;5074834;28;20425;-87
2023/09/29 06:04:40;;;;;;;5.23;2.70;;;21.10;99.90;;;;;;5085040;28;20236;-88
2023/09/29 06:07:09;;;;;;;5.27;2.17;;;21.20;99.90;;;;;;5066908;28;20278;-87
2023/09/29 06:09:35;;;;;;;4.63;2.47;;;21.20;99.90;;;;;;5080241;28;20167;-87
2023/09/29 06:12:00;;;;;;;4.40;2.80;;;21.20;99.90;;;;;;5080006;28;20191;-87
2023/09/29 06:14:27;;;;;;;2.93;2.13;;;21.20;99.90;;;;;;5061885;28;20233;-86
2023/09/29 06:16:53;;;;;;;3.47;2.30;;;21.10;99.90;;;;;;5071517;28;20232;-87
2023/09/29 06:19:21;;;;;;;4.73;2.90;;;21.00;99.90;;;;;;5063440;28;20180;-87
2023/09/29 06:21:47;;;;;;;3.80;2.50;;;21.00;99.90;;;;;;5067912;28;20518;-87
2023/09/29 06:24:13;;;;;;;4.00;2.70;;;21.00;99.90;;;;;;5081608;28;20178;-86
2023/09/29 06:26:38;;;;;;;3.50;2.43;;;20.90;99.90;;;;;;5077986;28;20447;-87
2023/09/29 06:29:06;;;;;;;3.03;2.30;;;20.90;99.90;;;;;;5081686;28;20186;-87
2023/09/29 06:31:31;;;;;;;3.43;2.60;;;20.90;99.90;;;;;;5078491;28;20167;-87
2023/09/29 06:34:00;;;;;;;2.73;2.30;;;20.90;99.90;;;;;;5070958;28;20178;-86
2023/09/29 06:36:25;;;;;;;3.70;2.27;;;21.00;99.90;;;;;;5079380;28;20254;-87
2023/09/29 06:38:54;;;;;;;4.13;2.40;;;21.00;99.90;;;;;;5071589;28;20166;-87
2023/09/29 06:41:23;;;;;;;3.20;2.30;;;21.10;99.90;;;;;;5080423;28;20355;-87
2023/09/29 06:43:50;;;;;;;3.47;2.60;;;21.10;99.90;;;;;;5070745;28;20306;-86
2023/09/29 06:46:15;;;;;;;3.13;2.17;;;21.00;99.90;;;;;;5082284;28;20340;-87
2023/09/29 06:48:44;;;;;;;2.87;2.43;;;21.10;99.90;;;;;;5070930;28;20211;-87
2023/09/29 06:51:14;;;;;;;3.43;2.73;;;21.00;99.90;;;;;;5083477;28;20175;-86
2023/09/29 06:53:39;;;;;;;3.73;2.20;;;21.00;99.90;;;;;;5074652;28;20190;-87
2023/09/29 06:56:05;;;;;;;2.93;2.30;;;21.10;99.90;;;;;;5086021;28;20167;-87
2023/09/29 06:58:33;;;;;;;3.83;2.33;;;21.10;99.90;;;;;;5072136;28;20274;-87
2023/09/29 07:01:00;;;;;;;3.67;2.20;;;21.10;99.90;;;;;;5082464;28;20199;-87
2023/09/29 07:03:49;;;;;;;4.17;2.73;;;21.10;99.90;;;;;;5075303;28;20172;-87
2023/09/29 07:06:15;;;;;;;4.10;2.43;;;21.10;99.90;;;;;;5051603;28;20245;-87
2023/09/29 07:08:40;;;;;;;6.00;2.40;;;21.20;99.90;;;;;;5073892;28;20174;-87
2023/09/29 07:11:06;;;;;;;5.97;2.40;;;21.20;99.90;;;;;;5063695;28;20358;-87
2023/09/29 07:13:36;;;;;;;6.40;2.27;;;21.20;99.90;;;;;;5070397;28;20246;-86
2023/09/29 07:16:03;;;;;;;6.13;2.40;;;21.20;99.90;;;;;;5069137;28;20711;-87
2023/09/29 07:18:31;;;;;;;4.67;2.80;;;21.20;99.90;;;;;;5068185;28;20190;-87
2023/09/29 07:20:57;;;;;;;3.97;2.37;;;21.20;99.90;;;;;;5078258;28;20199;-87
2023/09/29 07:23:24;;;;;;;2.60;2.30;;;21.20;99.90;;;;;;5082872;28;20168;-87
2023/09/29 07:25:52;;;;;;;3.10;2.10;;;21.30;99.90;;;;;;5076376;28;20383;-87
2023/09/29 07:28:20;;;;;;;4.67;2.60;;;21.30;99.90;;;;;;5083603;28;20170;-87
2023/09/29 07:30:47;;;;;;;3.13;2.50;;;21.40;99.90;;;;;;5074103;28;20411;-87
2023/09/29 07:33:12;;;;;;;5.07;2.57;;;21.40;99.90;;;;;;5083677;28;20175;-87
2023/09/29 07:35:43;;;;;;;4.77;2.10;;;21.40;99.90;;;;;;5065956;28;20191;-88
2023/09/29 07:38:10;;;;;;;5.17;2.20;;;21.50;99.90;;;;;;5066230;28;20171;-87
2023/09/29 07:40:36;;;;;;;4.40;2.50;;;21.50;99.90;;;;;;5077620;28;20581;-87
2023/09/29 07:43:02;;;;;;;3.93;2.30;;;21.50;99.90;;;;;;5065956;28;20176;-88
2023/09/29 07:45:28;;;;;;;4.77;2.50;;;21.50;99.90;;;;;;5071417;28;20180;-87
2023/09/29 07:47:56;;;;;;;3.53;2.60;;;21.50;99.90;;;;;;5082319;28;20462;-87
2023/09/29 07:50:27;;;;;;;2.87;2.53;;;21.50;99.90;;;;;;5071607;28;20167;-88
2023/09/29 07:52:53;;;;;;;3.60;2.50;;;21.50;99.90;;;;;;5083044;28;20182;-88
2023/09/29 07:55:19;;;;;;;4.83;2.60;;;21.60;99.90;;;;;;5072631;28;20183;-87
2023/09/29 07:57:47;;;;;;;4.10;2.60;;;21.60;99.90;;;;;;5083992;28;20177;-87
2023/09/29 08:00:16;;;;;;;4.70;2.47;;;21.80;99.90;;;;;;5075301;28;20202;-87
2023/09/29 08:02:45;;;;;;;3.73;2.53;;;21.90;99.90;;;;;;5068105;28;20744;-87
2023/09/29 08:05:14;;;;;;;4.33;2.83;;;21.90;99.90;;;;;;5071027;28;20171;-87
2023/09/29 08:07:40;;;;;;;5.47;2.63;;;21.90;99.90;;;;;;5068412;28;20168;-87
2023/09/29 08:10:07;;;;;;;3.43;2.80;;;21.80;99.90;;;;;;5067409;28;20186;-88
2023/09/29 08:12:36;;;;;;;5.23;2.53;;;21.80;99.90;;;;;;5073678;28;20170;-86
2023/09/29 08:15:06;;;;;;;5.33;2.80;;;21.80;99.90;;;;;;5068732;28;20398;-86
2023/09/29 08:17:34;;;;;;;4.83;2.80;;;21.90;99.90;;;;;;5074297;28;20395;-87
2023/09/29 08:20:00;;;;;;;4.77;3.03;;;22.10;99.90;;;;;;5066766;28;20207;-87
2023/09/29 08:22:26;;;;;;;5.30;2.70;;;22.30;99.90;;;;;;5077402;28;20240;-87
2023/09/29 08:24:51;;;;;;;3.97;2.50;;;22.70;99.90;;;;;;5068022;28;20580;-87
2023/09/29 08:27:20;;;;;;;5.50;3.00;;;22.80;99.90;;;;;;5078725;28;20168;-87
2023/09/29 08:29:49;;;;;;;6.23;2.90;;;22.70;99.90;;;;;;5066743;28;20171;-87
2023/09/29 08:32:16;;;;;;;3.93;2.40;;;22.60;99.90;;;;;;5078068;28;20163;-87
2023/09/29 08:34:41;;;;;;;3.07;2.57;;;22.60;99.90;;;;;;5064669;28;20184;-87
2023/09/29 08:37:07;;;;;;;7.37;2.67;;;22.60;99.90;;;;;;5079803;28;20158;-87
2023/09/29 08:39:41;;;;;;;5.97;2.70;;;22.60;99.90;;;;;;5064263;28;20163;-87
2023/09/29 08:42:37;;;;;;;3.13;2.50;;;22.60;99.90;;;;;;5077522;28;20177;-87
2023/09/29 08:45:09;;;;;;;3.97;2.47;;;22.60;99.90;;;;;;5066827;28;20179;-87
2023/09/29 08:47:37;;;;;;;3.97;2.80;;;22.60;99.90;;;;;;5079506;28;20305;-87
2023/09/29 08:50:04;;;;;;;3.73;2.70;;;22.60;99.90;;;;;;5066656;28;20195;-87
2023/09/29 08:52:32;;;;;;;5.23;2.73;;;22.70;99.90;;;;;;5080468;28;20210;-87
2023/09/29 08:54:59;;;;;;;3.70;2.37;;;22.80;99.90;;;;;;5069960;28;20168;-87
2023/09/29 08:57:28;;;;;;;2.83;2.57;;;22.80;99.90;;;;;;5079431;28;20422;-87
2023/09/29 08:59:55;;;;;;;4.43;2.90;;;22.90;99.90;;;;;;5084972;28;20178;-87
2023/09/29 09:02:21;;;;;;;4.83;2.77;;;22.90;99.90;;;;;;5073969;28;20442;-87
2023/09/29 09:04:53;;;;;;;8.27;2.70;;;22.90;99.90;;;;;;5082584;28;20213;-87
2023/09/29 09:07:22;;;;;;;4.27;2.50;;;22.80;99.90;;;;;;5077965;28;20168;-87
2023/09/29 09:09:53;;;;;;;4.00;2.60;;;22.80;99.90;;;;;;5078916;28;20200;-87
2023/09/29 09:12:34;;;;;;;3.53;2.67;;;22.80;99.90;;;;;;5076446;28;20163;-87
2023/09/29 09:15:02;;;;;;;3.93;2.50;;;22.70;99.90;;;;;;5079597;28;20540;-87
2023/09/29 09:17:28;;;;;;;4.20;2.80;;;22.70;99.90;;;;;;5077701;28;20168;-87
2023/09/29 09:19:54;;;;;;;3.00;2.53;;;22.70;99.90;;;;;;5067006;28;20182;-87
2023/09/29 09:22:27;;;;;;;3.70;2.67;;;22.70;99.90;;;;;;5070645;28;20511;-87
2023/09/29 09:25:00;;;;;;;4.27;3.20;;;22.70;99.90;;;;;;5083274;28;20175;-87
2023/09/29 09:27:36;;;;;;;4.17;2.70;;;22.70;99.90;;;;;;5076163;28;20172;-88
2023/09/29 09:30:04;;;;;;;3.67;2.70;;;22.70;99.90;;;;;;5069346;28;20351;-87
2023/09/29 09:32:30;;;;;;;5.03;2.50;;;22.70;99.90;;;;;;5066329;28;20159;-87
2023/09/29 09:34:58;;;;;;;4.40;2.80;;;22.70;99.90;;;;;;5078387;28;20214;-87
2023/09/29 09:37:28;;;;;;;3.63;2.50;;;22.70;99.90;;;;;;5080000;28;20193;-87
2023/09/29 09:39:59;;;;;;;4.17;2.87;;;22.70;99.90;;;;;;5074338;28;20772;-87
2023/09/29 09:42:26;;;;;;;4.33;2.57;;;22.70;99.90;;;;;;5083350;28;20176;-87
2023/09/29 09:44:57;;;;;;;4.50;2.80;;;22.70;99.90;;;;;;5074188;28;20557;-87
2023/09/29 09:47:26;;;;;;;3.23;2.50;;;22.80;99.90;;;;;;5083475;28;20513;-86
2023/09/29 09:49:55;;;;;;;3.67;2.67;;;22.80;99.90;;;;;;5076961;28;20344;-87
2023/09/29 09:52:33;;;;;;;3.17;2.70;;;22.80;99.90;;;;;;5072395;28;20167;-87
2023/09/29 09:55:13;;;;;;;3.23;2.40;;;22.80;99.90;;;;;;5073392;28;20171;-87
2023/09/29 09:57:45;;;;;;;3.33;2.40;;;22.80;99.90;;;;;;5065251;28;20279;-87
2023/09/29 10:00:17;;;;;;;2.83;2.40;;;22.80;99.90;;;;;;5079617;28;20492;-87
2023/09/29 10:02:53;;;;;;;3.17;2.10;;;22.90;99.90;;;;;;5083351;28;20170;-87
2023/09/29 10:05:22;;;;;;;2.80;2.50;;;22.90;99.90;;;;;;5070731;28;20235;-87
2023/09/29 10:08:22;;;;;;;3.87;2.50;;;23.00;99.90;;;;;;5081448;28;20179;-87
2023/09/29 10:10:48;;;;;;;4.23;2.40;;;23.00;99.90;;;;;;5063382;28;20234;-88
2023/09/29 10:13:17;;;;;;;4.47;2.70;;;23.00;99.90;;;;;;5080400;28;20179;-87
2023/09/29 10:15:53;;;;;;;3.87;2.77;;;23.00;99.90;;;;;;5072769;28;20228;-87
2023/09/29 10:18:22;;;;;;;2.90;2.60;;;23.00;99.90;;;;;;5061208;28;20559;-87
2023/09/29 10:20:55;;;;;;;3.33;2.60;;;23.00;99.90;;;;;;5069753;28;20251;-87
2023/09/29 10:23:30;;;;;;;3.43;2.30;;;23.00;99.90;;;;;;5080804;28;20209;-87
2023/09/29 10:25:58;;;;;;;3.20;2.60;;;23.00;99.90;;;;;;5065334;28;20621;-87
2023/09/29 10:28:34;;;;;;;2.87;2.53;;;23.00;99.90;;;;;;5078891;28;20179;-88
2023/09/29 10:31:17;;;;;;;4.87;2.53;;;22.90;99.90;;;;;;5065325;28;20185;-87
2023/09/29 10:33:50;;;;;;;3.83;2.63;;;23.00;99.90;;;;;;5079452;28;20183;-87
2023/09/29 10:36:25;;;;;;;5.03;2.73;;;22.90;99.90;;;;;;5071582;28;20272;-87
2023/09/29 10:38:57;;;;;;;4.10;2.50;;;22.90;99.90;;;;;;5082026;28;20223;-87
2023/09/29 10:41:23;;;;;;;3.63;2.17;;;22.90;99.90;;;;;;5069932;28;20201;-87
2023/09/29 10:43:52;;;;;;;3.13;2.30;;;23.00;99.90;;;;;;5083176;28;20260;-87
2023/09/29 10:46:21;;;;;;;5.03;2.70;;;22.90;99.90;;;;;;5068553;28;20171;-87
2023/09/29 10:48:52;;;;;;;4.10;2.53;;;23.00;99.90;;;;;;5081471;28;20210;-88
2023/09/29 10:51:33;;;;;;;4.07;2.60;;;22.90;99.90;;;;;;5073117;28;20176;-88
2023/09/29 10:54:08;;;;;;;4.03;2.57;;;22.90;99.90;;;;;;5065210;28;20273;-87
2023/09/29 10:56:35;;;;;;;3.50;2.90;;;22.90;99.90;;;;;;5077181;28;20188;-87
2023/09/29 10:59:07;;;;;;;2.97;2.60;;;23.00;99.90;;;;;;5062458;28;20266;-88
2023/09/29 11:01:33;;;;;;;3.00;2.63;;;23.00;99.90;;;;;;5065402;28;20392;-87
2023/09/29 11:04:08;;;;;;;6.10;2.30;;;23.00;99.90;;;;;;5082141;28;20190;-87
2023/09/29 11:06:49;;;;;;;4.27;2.47;;;23.00;99.90;;;;;;5072585;28;20182;-88
2023/09/29 11:09:28;;;;;;;4.40;2.60;;;23.00;99.90;;;;;;5085192;28;20288;-88
2023/09/29 11:11:54;;;;;;;4.27;2.50;;;23.00;99.90;;;;;;5072637;28;20558;-87
2023/09/29 11:14:19;;;;;;;3.53;2.53;;;23.00;99.90;;;;;;5083460;28;20197;-87
2023/09/29 11:16:57;;;;;;;3.30;2.53;;;23.00;99.90;;;;;;5076478;28;20179;-87
2023/09/29 11:19:30;;;;;;;5.07;2.17;;;23.00;99.90;;;;;;5080972;28;20183;-87
2023/09/29 11:21:58;;;;;;;3.27;2.37;;;23.10;99.90;;;;;;5074888;28;20439;-88
2023/09/29 11:24:42;;;;;;;4.20;2.40;;;23.10;99.90;;;;;;5081663;28;20182;-88
2023/09/29 11:27:08;;;;;;;4.10;2.47;;;23.10;99.90;;;;;;5075405;28;20451;-88
2023/09/29 11:29:37;;;;;;;4.47;2.43;;;23.20;99.90;;;;;;5081177;28;20652;-87
2023/09/29 11:32:04;;;;;;;4.87;2.50;;;23.20;99.90;;;;;;5078753;28;20179;-88
2023/09/29 11:34:29;;;;;;;4.93;2.40;;;23.20;99.90;;;;;;5075972;28;20482;-88
2023/09/29 11:36:55;;;;;;;4.63;2.70;;;23.20;99.90;;;;;;5079067;28;20190;-87
2023/09/29 11:39:24;;;;;;;5.47;2.30;;;23.20;99.90;;;;;;5073516;28;20222;-87
2023/09/29 11:41:52;;;;;;;5.67;3.07;;;23.20;99.90;;;;;;5067264;28;20607;-87
2023/09/29 11:44:18;;;;;;;6.20;2.73;;;23.20;99.90;;;;;;5073401;28;20500;-88
2023/09/29 11:46:45;;;;;;;5.37;3.20;;;23.30;99.90;;;;;;5063207;28;20296;-87
2023/09/29 11:49:11;;;;;;;6.50;3.03;;;23.30;99.90;;;;;;5072978;28;20260;-87
2023/09/29 11:51:37;;;;;;;6.80;3.00;;;23.30;99.90;;;;;;5062774;28;20183;-87
2023/09/29 11:54:03;;;;;;;5.43;2.37;;;23.30;99.90;;;;;;5071234;28;20255;-87
2023/09/29 11:56:31;;;;;;;5.37;3.00;;;23.30;99.90;;;;;;5060383;28;20333;-87
2023/09/29 11:59:00;;;;;;;5.20;3.03;;;23.30;99.90;;;;;;5075379;28;20176;-87
2023/09/29 12:01:29;;;;;;;4.37;2.60;;;23.30;99.90;;;;;;5061459;28;20306;-88
2023/09/29 12:03:55;;;;;;;5.70;2.70;;;23.30;99.90;;;;;;5073750;28;20179;-87
2023/09/29 12:06:20;;;;;;;6.30;3.50;;;23.30;99.90;;;;;;5065362;28;20195;-87
2023/09/29 12:08:46;;;;;;;4.40;2.90;;;23.30;99.90;;;;;;5073046;28;20587;-87
2023/09/29 12:11:19;;;;;;;5.07;3.30;;;23.30;99.90;;;;;;5070816;28;20296;-87
2023/09/29 12:13:47;;;;;;;6.60;3.00;;;23.30;99.90;;;;;;5073335;28;20351;-87
2023/09/29 12:16:14;;;;;;;5.33;3.40;;;23.30;99.90;;;;;;5062905;28;20259;-88
2023/09/29 12:18:42;;;;;;;7.40;3.40;;;23.40;99.90;;;;;;5070007;28;20540;-87
2023/09/29 12:21:09;;;;;;;6.63;3.27;;;23.30;99.90;;;;;;5067031;28;20298;-87
2023/09/29 12:23:34;;;;;;;5.53;3.80;;;23.30;99.90;;;;;;5068719;28;20166;-86
2023/09/29 12:26:00;;;;;;;7.10;3.37;;;23.40;99.90;;;;;;5073380;28;20186;-87
2023/09/29 12:28:25;;;;;;;6.87;3.53;;;23.40;99.90;;;;;;5068106;28;20156;-87
2023/09/29 12:30:51;;;;;;;8.00;3.80;;;23.30;99.90;;;;;;5073323;28;20172;-87
2023/09/29 12:33:17;;;;;;;6.17;3.37;;;23.40;99.90;;;;;;5063417;28;20178;-87
2023/09/29 12:35:45;;;;;;;8.07;3.50;;;23.40;99.90;;;;;;5070201;28;20196;-88
2023/09/29 12:38:14;;;;;;;7.83;3.33;;;23.40;99.90;;;;;;5060467;28;20179;-87
2023/09/29 12:40:39;;;;;;;6.57;3.67;;;23.40;99.90;;;;;;5069223;28;20262;-87
2023/09/29 12:43:05;;;;;;;9.17;3.77;;;23.40;99.90;;;;;;5060677;28;20226;-87
2023/09/29 12:45:35;;;;;;;8.87;3.70;;;23.40;99.90;;;;;;5075326;28;20557;-87
2023/09/29 12:48:00;;;;;;;6.90;3.90;;;23.40;99.90;;;;;;5063004;28;20274;-87
2023/09/29 12:50:31;;;;;;;7.30;3.83;;;23.40;99.90;;;;;;5068374;28;20371;-87
2023/09/29 12:52:57;;;;;;;7.37;4.03;;;23.40;99.90;;;;;;5079522;28;20210;-87
2023/09/29 12:55:25;;;;;;;6.50;3.90;;;23.40;99.90;;;;;;5074690;28;20202;-86